Time;durP1;ratioP1;P1;durP2;ratioP2;P2;SDS_P1;SDS_P2;PMS_P1;PMS_P2;Temp;Humidity;BMP_temperature;BMP_pressure;BME280_temperature;BME280_humidity;BME280_pressure;Samples;Min_cycle;Max_cycle;Signal;HPM_P1;HPM_P2
2022/03/31 00:00:06;;;;;;;10.60;7.82;;;10.00;99.90;;;;;;6306879;22;20455;-74
2022/03/31 00:02:32;;;;;;;12.55;8.57;;;9.80;99.90;;;;;;6307657;22;20420;-74
2022/03/31 00:04:59;;;;;;;11.52;8.07;;;9.90;99.90;;;;;;6279721;22;20003;-74
2022/03/31 00:07:24;;;;;;;13.63;8.30;;;10.00;99.90;;;;;;6280025;22;20441;-74
2022/03/31 00:09:51;;;;;;;10.25;8.38;;;10.00;99.90;;;;;;6306987;22;20026;-74
2022/03/31 00:12:17;;;;;;;11.27;7.75;;;9.90;99.90;;;;;;6307608;22;20057;-74
2022/03/31 00:14:43;;;;;;;10.40;8.15;;;9.90;99.90;;;;;;6307004;22;20007;-74
2022/03/31 00:17:09;;;;;;;10.52;8.00;;;10.00;99.90;;;;;;6307381;22;20427;-74
2022/03/31 00:19:34;;;;;;;12.63;8.77;;;9.90;99.90;;;;;;6307181;22;20074;-74
2022/03/31 00:22:00;;;;;;;14.40;9.40;;;9.80;99.90;;;;;;6307246;22;19995;-74
2022/03/31 00:24:26;;;;;;;11.40;8.80;;;9.80;99.90;;;;;;6307327;22;20041;-74
2022/03/31 00:26:52;;;;;;;12.23;8.43;;;9.80;99.90;;;;;;6307137;22;20003;-74
2022/03/31 00:29:18;;;;;;;15.30;9.80;;;9.70;99.90;;;;;;6306801;22;20337;-74
2022/03/31 00:31:44;;;;;;;14.65;10.02;;;9.80;99.90;;;;;;6306997;22;19999;-73
2022/03/31 00:34:11;;;;;;;10.43;8.90;;;9.90;99.90;;;;;;6307298;22;20493;-74
2022/03/31 00:36:36;;;;;;;15.27;9.30;;;9.90;99.90;;;;;;6307011;22;20409;-74
2022/03/31 00:41:46;;;;;;;12.25;9.00;;;10.00;99.90;;;;;;6306543;22;20610;-74
2022/03/31 00:44:12;;;;;;;13.63;9.25;;;10.00;99.90;;;;;;6307137;22;20063;-74
2022/03/31 00:46:49;;;;;;;14.85;9.15;;;10.00;99.90;;;;;;6305550;22;20019;-74
2022/03/31 00:49:16;;;;;;;13.82;9.75;;;10.00;99.90;;;;;;6278504;22;20006;-74
2022/03/31 00:51:42;;;;;;;15.48;9.57;;;10.00;99.90;;;;;;6305756;22;19999;-75
2022/03/31 00:54:08;;;;;;;16.23;10.32;;;10.10;99.90;;;;;;6306522;22;20006;-74
2022/03/31 00:56:34;;;;;;;15.25;10.27;;;10.10;99.90;;;;;;6305398;22;20382;-74
2022/03/31 00:59:04;;;;;;;13.45;9.65;;;10.10;99.90;;;;;;6306713;22;19999;-74
2022/03/31 01:01:31;;;;;;;14.55;9.23;;;10.10;99.90;;;;;;6307187;22;20444;-74
2022/03/31 01:03:59;;;;;;;14.80;10.27;;;10.10;99.90;;;;;;6307138;22;20003;-74
2022/03/31 01:06:25;;;;;;;13.18;9.77;;;10.20;99.90;;;;;;6305476;22;20086;-74
2022/03/31 01:08:52;;;;;;;14.82;10.68;;;10.10;99.90;;;;;;6306141;22;20443;-74
2022/03/31 01:11:18;;;;;;;12.35;10.55;;;10.20;99.90;;;;;;6306674;22;20007;-74
2022/03/31 01:13:45;;;;;;;12.48;9.43;;;10.10;99.90;;;;;;6306870;22;20007;-74
2022/03/31 01:16:10;;;;;;;12.50;9.80;;;10.10;99.90;;;;;;6279130;22;20084;-74
2022/03/31 01:18:36;;;;;;;13.50;10.20;;;10.00;99.90;;;;;;6277645;22;20395;-74
2022/03/31 01:21:02;;;;;;;12.18;10.57;;;10.00;99.90;;;;;;6306404;22;20135;-75
2022/03/31 01:23:28;;;;;;;14.13;10.00;;;10.00;99.90;;;;;;6306851;22;20000;-75
2022/03/31 01:25:53;;;;;;;13.75;10.65;;;10.00;99.90;;;;;;6304211;22;19999;-75
2022/03/31 01:28:19;;;;;;;16.65;10.95;;;9.80;99.90;;;;;;6306458;22;20065;-74
2022/03/31 01:30:46;;;;;;;13.32;9.55;;;9.80;99.90;;;;;;6278248;22;19999;-75
2022/03/31 01:33:14;;;;;;;12.35;9.68;;;9.80;99.90;;;;;;6280333;22;20391;-75
2022/03/31 01:35:40;;;;;;;15.82;10.52;;;9.80;99.90;;;;;;6307362;22;20003;-75
2022/03/31 01:38:06;;;;;;;17.27;10.30;;;9.80;99.90;;;;;;6308175;22;19999;-74
2022/03/31 01:40:34;;;;;;;14.35;9.98;;;9.90;99.90;;;;;;6306615;22;19995;-74
2022/03/31 01:43:00;;;;;;;12.95;9.40;;;9.90;99.90;;;;;;6280744;22;20007;-74
2022/03/31 01:45:26;;;;;;;13.65;10.25;;;9.90;99.90;;;;;;6280941;22;20031;-75
2022/03/31 01:47:52;;;;;;;12.73;9.88;;;9.90;99.90;;;;;;6280575;22;20079;-75
2022/03/31 01:50:18;;;;;;;13.48;9.80;;;9.90;99.90;;;;;;6305866;22;20408;-74
2022/03/31 01:52:44;;;;;;;13.30;9.05;;;9.90;99.90;;;;;;6308487;22;20000;-74
2022/03/31 01:55:11;;;;;;;13.52;10.05;;;9.70;99.90;;;;;;6279059;22;20329;-74
2022/03/31 01:57:37;;;;;;;13.00;9.77;;;9.60;99.90;;;;;;6308503;22;20027;-74
2022/03/31 02:00:05;;;;;;;14.57;9.38;;;9.60;99.90;;;;;;6281108;22;20072;-74
2022/03/31 02:02:32;;;;;;;12.82;9.02;;;9.70;99.90;;;;;;6280893;22;20011;-74
2022/03/31 02:04:57;;;;;;;12.88;9.23;;;9.70;99.90;;;;;;6308776;22;20033;-74
2022/03/31 02:07:23;;;;;;;13.13;9.90;;;9.70;99.90;;;;;;6306523;22;20003;-74
2022/03/31 02:09:49;;;;;;;11.75;9.10;;;9.60;99.90;;;;;;6280304;22;20329;-74
2022/03/31 02:12:15;;;;;;;12.52;8.48;;;9.50;99.90;;;;;;6308107;22;20007;-74
2022/03/31 02:14:41;;;;;;;16.08;9.90;;;9.50;99.90;;;;;;6308158;22;20015;-74
2022/03/31 02:17:08;;;;;;;15.68;9.88;;;9.40;99.90;;;;;;6306670;22;20004;-74
2022/03/31 02:19:34;;;;;;;12.63;10.15;;;9.50;99.90;;;;;;6308158;22;20066;-74
2022/03/31 02:22:01;;;;;;;13.77;10.68;;;9.50;99.90;;;;;;6306693;22;20010;-74
2022/03/31 02:24:27;;;;;;;14.20;10.30;;;9.50;99.90;;;;;;6307679;22;20425;-74
2022/03/31 02:26:53;;;;;;;13.50;10.45;;;9.50;99.90;;;;;;6279613;22;20447;-74
2022/03/31 02:29:19;;;;;;;14.82;11.13;;;9.50;99.90;;;;;;6307524;22;20030;-74
2022/03/31 02:31:48;;;;;;;17.90;11.95;;;9.40;99.90;;;;;;6308467;22;19995;-73
2022/03/31 02:34:17;;;;;;;16.80;11.10;;;9.20;99.90;;;;;;6306549;22;19999;-74
2022/03/31 02:36:43;;;;;;;17.65;11.50;;;9.30;99.90;;;;;;6280093;22;20316;-74
2022/03/31 02:39:10;;;;;;;17.48;11.43;;;9.30;99.90;;;;;;6307336;22;20014;-74
2022/03/31 02:41:36;;;;;;;18.25;12.02;;;9.30;99.90;;;;;;6306466;22;20003;-74
2022/03/31 02:44:03;;;;;;;16.35;11.65;;;9.30;99.90;;;;;;6307240;22;20060;-74
2022/03/31 02:46:29;;;;;;;15.85;11.82;;;9.20;99.90;;;;;;6306414;22;20004;-74
2022/03/31 02:48:56;;;;;;;18.52;12.18;;;9.20;99.90;;;;;;6280375;22;20056;-74
2022/03/31 02:51:26;;;;;;;17.50;12.60;;;9.10;99.90;;;;;;6279396;22;20010;-73
2022/03/31 02:56:37;;;;;;;20.35;13.15;;;8.90;99.90;;;;;;6308029;22;20140;-74
2022/03/31 02:59:04;;;;;;;19.83;14.38;;;9.00;99.90;;;;;;6307467;22;20069;-74
2022/03/31 03:01:30;;;;;;;18.38;13.77;;;9.10;99.90;;;;;;6307009;22;20455;-74
2022/03/31 03:04:00;;;;;;;18.98;13.73;;;9.00;99.90;;;;;;6280353;22;20008;-74
2022/03/31 03:06:26;;;;;;;20.77;13.18;;;9.10;99.90;;;;;;6306236;22;20351;-74
2022/03/31 03:08:52;;;;;;;19.70;14.35;;;9.10;99.90;;;;;;6307392;22;19999;-74
2022/03/31 03:11:18;;;;;;;18.45;12.80;;;9.10;99.90;;;;;;6307775;22;20082;-74
2022/03/31 03:13:47;;;;;;;22.15;13.90;;;8.90;99.90;;;;;;6307799;22;20031;-74
2022/03/31 03:16:13;;;;;;;22.77;15.00;;;8.90;99.90;;;;;;6278992;22;20003;-74
2022/03/31 03:18:39;;;;;;;20.17;13.85;;;8.90;99.90;;;;;;6280031;22;19999;-74
2022/03/31 03:21:07;;;;;;;25.33;16.33;;;8.90;99.90;;;;;;6306973;22;20000;-74
2022/03/31 03:23:37;;;;;;;23.17;15.18;;;8.70;99.90;;;;;;6307663;22;20060;-74
2022/03/31 03:26:04;;;;;;;25.42;15.48;;;8.90;99.90;;;;;;6307922;22;20011;-73
2022/03/31 03:28:31;;;;;;;23.63;15.60;;;8.80;99.90;;;;;;6307971;22;20011;-74
2022/03/31 03:30:57;;;;;;;22.23;15.32;;;8.80;99.90;;;;;;6280624;22;20003;-74
2022/03/31 03:33:24;;;;;;;26.70;16.48;;;8.70;99.90;;;;;;6306219;22;20294;-74
2022/03/31 03:35:50;;;;;;;26.90;17.25;;;8.80;99.90;;;;;;6279684;22;20011;-74
2022/03/31 03:38:16;;;;;;;23.05;16.20;;;8.70;99.90;;;;;;6306294;22;20002;-74
2022/03/31 03:40:43;;;;;;;25.55;17.38;;;8.80;99.90;;;;;;6307002;22;20048;-74
2022/03/31 03:43:09;;;;;;;26.17;16.60;;;8.80;99.90;;;;;;6306388;22;20403;-74
2022/03/31 03:45:36;;;;;;;26.42;17.83;;;8.80;99.90;;;;;;6306770;22;20003;-74
2022/03/31 03:48:03;;;;;;;26.55;17.80;;;8.80;99.90;;;;;;6307471;22;20442;-74
2022/03/31 03:50:29;;;;;;;23.65;16.27;;;8.80;99.90;;;;;;6306679;22;20162;-73
2022/03/31 03:52:54;;;;;;;26.40;16.55;;;8.80;99.90;;;;;;6280387;22;20035;-74
2022/03/31 03:55:21;;;;;;;27.35;17.58;;;8.70;99.90;;;;;;6307141;22;20010;-74
2022/03/31 03:57:47;;;;;;;30.38;18.80;;;8.80;99.90;;;;;;6307650;22;20003;-74
2022/03/31 04:00:13;;;;;;;25.73;16.90;;;8.70;99.90;;;;;;6307260;22;19999;-74
2022/03/31 04:02:39;;;;;;;27.88;17.52;;;8.70;99.90;;;;;;6279965;22;20038;-73
2022/03/31 04:05:05;;;;;;;27.73;17.77;;;8.70;99.90;;;;;;6306938;22;20074;-74
2022/03/31 04:07:31;;;;;;;29.55;18.70;;;8.70;99.90;;;;;;6307216;22;20014;-74
2022/03/31 04:09:57;;;;;;;31.10;18.67;;;8.70;99.90;;;;;;6279919;22;20333;-73
2022/03/31 04:12:22;;;;;;;26.98;18.23;;;8.60;99.90;;;;;;6307210;22;20003;-74
2022/03/31 04:14:49;;;;;;;27.40;18.27;;;8.60;99.90;;;;;;6307008;22;20014;-73
2022/03/31 04:17:16;;;;;;;29.20;18.10;;;8.40;99.90;;;;;;6307475;22;19995;-73
2022/03/31 04:19:43;;;;;;;27.17;17.92;;;8.40;99.90;;;;;;6279445;22;20329;-74
2022/03/31 04:22:09;;;;;;;29.38;18.27;;;8.40;99.90;;;;;;6307190;22;19995;-74
2022/03/31 04:24:35;;;;;;;27.73;18.02;;;8.30;99.90;;;;;;6307601;22;20013;-74
2022/03/31 04:27:01;;;;;;;25.48;16.33;;;8.40;99.90;;;;;;6307450;22;20003;-74
2022/03/31 04:29:27;;;;;;;25.65;17.58;;;8.30;99.90;;;;;;6307231;22;19999;-74
2022/03/31 04:31:53;;;;;;;27.55;17.92;;;8.40;99.90;;;;;;6306740;22;20003;-74
2022/03/31 04:34:20;;;;;;;26.70;17.98;;;8.40;99.90;;;;;;6306956;22;20030;-74
2022/03/31 04:36:46;;;;;;;29.63;18.80;;;8.40;99.90;;;;;;6306664;22;20325;-74
2022/03/31 04:39:13;;;;;;;27.00;16.92;;;8.30;99.90;;;;;;6306845;22;20117;-74
2022/03/31 04:41:42;;;;;;;29.77;18.17;;;8.20;99.90;;;;;;6306854;22;20011;-74
2022/03/31 04:44:09;;;;;;;26.63;17.75;;;8.30;99.90;;;;;;6280059;22;20007;-74
2022/03/31 04:46:35;;;;;;;28.13;19.08;;;8.40;99.90;;;;;;6305356;22;20006;-74
2022/03/31 04:49:01;;;;;;;24.92;17.13;;;8.30;99.90;;;;;;6306382;22;20003;-73
2022/03/31 04:51:27;;;;;;;27.30;16.45;;;8.30;99.90;;;;;;6305319;22;20006;-74
2022/03/31 04:53:54;;;;;;;26.42;16.02;;;8.20;99.90;;;;;;6306732;22;20004;-74
2022/03/31 04:56:20;;;;;;;25.38;16.75;;;8.20;99.90;;;;;;6305544;22;20094;-74
2022/03/31 04:58:46;;;;;;;27.48;20.25;;;8.20;99.90;;;;;;6306720;22;20000;-74
2022/03/31 05:01:12;;;;;;;23.63;17.17;;;8.30;99.90;;;;;;6305388;22;20007;-74
2022/03/31 05:03:39;;;;;;;28.42;18.52;;;8.20;99.90;;;;;;6306298;22;20049;-74
2022/03/31 05:06:08;;;;;;;26.10;17.23;;;8.20;99.90;;;;;;6305665;22;20630;-74
2022/03/31 05:08:34;;;;;;;28.70;18.35;;;8.20;99.90;;;;;;6307671;22;20443;-74
2022/03/31 05:11:00;;;;;;;29.45;18.02;;;8.10;99.90;;;;;;6308710;22;20409;-74
2022/03/31 05:13:26;;;;;;;26.55;17.58;;;8.10;99.90;;;;;;6308837;22;20012;-74
2022/03/31 05:15:52;;;;;;;30.10;18.30;;;8.00;99.90;;;;;;6308998;22;20057;-73
2022/03/31 05:18:18;;;;;;;28.35;18.88;;;7.90;99.90;;;;;;6307147;22;20003;-74
2022/03/31 05:20:44;;;;;;;17.02;11.65;;;7.90;99.90;;;;;;6308696;22;20005;-74
2022/03/31 05:23:13;;;;;;;11.27;9.43;;;7.90;99.90;;;;;;6306903;22;20082;-73
2022/03/31 05:25:39;;;;;;;10.70;9.60;;;8.00;99.90;;;;;;6281498;22;19999;-74
2022/03/31 05:28:06;;;;;;;10.07;8.98;;;8.00;99.90;;;;;;6308666;22;20007;-73
2022/03/31 05:30:32;;;;;;;10.68;9.20;;;8.00;99.90;;;;;;6306590;22;20006;-73
2022/03/31 05:32:59;;;;;;;10.80;8.57;;;7.90;99.90;;;;;;6307202;22;20011;-73
2022/03/31 05:35:27;;;;;;;14.30;9.80;;;8.00;99.90;;;;;;6306947;22;20003;-74
2022/03/31 05:37:53;;;;;;;14.15;9.30;;;7.90;99.90;;;;;;6307578;22;19999;-73
2022/03/31 05:40:19;;;;;;;10.02;7.95;;;7.80;99.90;;;;;;6281078;22;20008;-74
2022/03/31 05:42:45;;;;;;;8.90;8.00;;;7.60;99.90;;;;;;6306865;22;20028;-73
2022/03/31 05:45:12;;;;;;;9.25;7.05;;;7.70;99.90;;;;;;6308526;22;20042;-74
2022/03/31 05:47:39;;;;;;;7.40;6.03;;;7.60;99.90;;;;;;6306920;22;20003;-74
2022/03/31 05:50:08;;;;;;;8.27;6.30;;;7.60;99.90;;;;;;6308442;22;20045;-74
2022/03/31 05:52:38;;;;;;;7.85;6.75;;;7.60;99.90;;;;;;6308541;22;20094;-74
2022/03/31 05:55:06;;;;;;;7.63;6.45;;;7.60;99.90;;;;;;6279477;22;20096;-73
2022/03/31 05:57:33;;;;;;;6.75;6.15;;;7.50;99.90;;;;;;6308255;22;20421;-74
2022/03/31 05:59:59;;;;;;;8.27;6.75;;;7.50;99.90;;;;;;6308645;22;19999;-73
2022/03/31 06:02:25;;;;;;;6.72;6.00;;;7.40;99.90;;;;;;6307831;22;20007;-73
2022/03/31 06:04:50;;;;;;;9.75;6.75;;;7.50;99.90;;;;;;6308435;22;20006;-74
2022/03/31 06:07:17;;;;;;;7.20;6.50;;;7.40;99.90;;;;;;6306691;22;20070;-74
2022/03/31 06:09:42;;;;;;;6.07;5.57;;;7.40;99.90;;;;;;6307687;22;19995;-73
2022/03/31 06:12:09;;;;;;;7.18;6.20;;;7.40;99.90;;;;;;6308738;22;20003;-74
2022/03/31 06:14:34;;;;;;;5.97;5.25;;;7.30;99.90;;;;;;6305983;22;20007;-74
2022/03/31 06:17:00;;;;;;;8.20;6.53;;;7.30;99.90;;;;;;6307194;22;20044;-73
2022/03/31 06:19:26;;;;;;;7.53;6.15;;;7.20;99.90;;;;;;6280883;22;19999;-74
2022/03/31 06:21:52;;;;;;;6.35;5.85;;;7.30;99.90;;;;;;6307976;22;20409;-74
2022/03/31 06:24:18;;;;;;;6.80;5.63;;;7.40;99.90;;;;;;6306665;22;20003;-73
2022/03/31 06:26:44;;;;;;;7.57;6.10;;;7.50;99.90;;;;;;6307679;22;20031;-73
2022/03/31 06:29:09;;;;;;;7.07;6.38;;;7.50;99.90;;;;;;6307110;22;20011;-73
2022/03/31 06:31:37;;;;;;;9.65;6.97;;;7.50;99.90;;;;;;6307533;22;20450;-73
2022/03/31 06:34:04;;;;;;;9.13;6.82;;;7.40;99.90;;;;;;6305380;22;20034;-74
2022/03/31 06:36:30;;;;;;;9.77;6.97;;;7.30;99.90;;;;;;6307197;22;20003;-73
2022/03/31 06:38:56;;;;;;;8.18;6.97;;;7.30;99.90;;;;;;6305454;22;19999;-74
2022/03/31 06:41:22;;;;;;;8.73;5.72;;;7.10;99.90;;;;;;6307481;22;20422;-74
2022/03/31 06:43:48;;;;;;;5.43;4.90;;;7.10;99.90;;;;;;6279136;22;20031;-73
2022/03/31 06:46:15;;;;;;;9.05;5.88;;;6.90;99.90;;;;;;6307531;22;20006;-73
2022/03/31 06:48:42;;;;;;;8.20;5.65;;;6.90;99.90;;;;;;6306414;22;20007;-73
2022/03/31 06:51:10;;;;;;;6.25;4.47;;;6.80;99.90;;;;;;6307053;22;20070;-74
2022/03/31 06:53:37;;;;;;;4.70;4.30;;;6.90;99.90;;;;;;6306980;22;20008;-73
2022/03/31 06:56:14;;;;;;;5.88;4.93;;;6.90;99.90;;;;;;6307238;22;20007;-73
2022/03/31 06:58:40;;;;;;;5.35;4.85;;;6.80;99.90;;;;;;6307260;22;20380;-74
2022/03/31 07:01:06;;;;;;;5.85;4.68;;;6.70;99.90;;;;;;6305600;22;20004;-73
2022/03/31 07:03:32;;;;;;;6.55;5.15;;;6.70;99.90;;;;;;6305591;22;20320;-73
2022/03/31 07:05:57;;;;;;;5.35;4.85;;;6.70;99.90;;;;;;6306815;22;20403;-74
2022/03/31 07:08:23;;;;;;;8.80;5.63;;;6.70;99.90;;;;;;6278759;22;20035;-74
2022/03/31 07:10:49;;;;;;;5.30;4.80;;;6.70;99.90;;;;;;6306374;22;19996;-73
2022/03/31 07:13:15;;;;;;;5.60;5.03;;;6.70;99.90;;;;;;6306353;22;20014;-73
2022/03/31 07:15:41;;;;;;;5.03;4.63;;;6.80;99.90;;;;;;6305466;22;20034;-74
2022/03/31 07:18:07;;;;;;;4.63;4.05;;;6.80;99.90;;;;;;6307125;22;19995;-73
2022/03/31 07:20:34;;;;;;;4.90;4.50;;;6.80;99.90;;;;;;6277849;22;20003;-73
2022/03/31 07:23:00;;;;;;;3.70;3.40;;;6.80;99.90;;;;;;6305867;22;20007;-74
2022/03/31 07:25:27;;;;;;;5.20;3.70;;;6.60;99.90;;;;;;6279654;22;20086;-73
2022/03/31 07:27:54;;;;;;;4.53;4.10;;;6.60;99.90;;;;;;6279453;22;20030;-74
2022/03/31 07:30:22;;;;;;;4.20;3.90;;;6.50;99.90;;;;;;6305332;22;20007;-74
2022/03/31 07:32:52;;;;;;;4.60;4.30;;;6.60;99.90;;;;;;6306659;22;20003;-74
2022/03/31 07:35:21;;;;;;;4.25;3.95;;;6.60;99.90;;;;;;6277767;22;20003;-74
2022/03/31 07:37:47;;;;;;;3.80;3.60;;;6.60;99.90;;;;;;6279686;22;20086;-74
2022/03/31 07:40:13;;;;;;;4.20;3.80;;;6.60;99.90;;;;;;6305704;22;20003;-74
2022/03/31 07:42:38;;;;;;;4.38;3.75;;;6.70;99.90;;;;;;6280110;22;20003;-74
2022/03/31 07:45:05;;;;;;;4.45;4.15;;;6.60;99.90;;;;;;6304492;22;20030;-74
2022/03/31 07:47:30;;;;;;;5.20;4.70;;;6.60;99.90;;;;;;6306946;22;20003;-74
2022/03/31 07:49:56;;;;;;;4.63;4.22;;;6.50;99.90;;;;;;6307048;22;20061;-74
2022/03/31 07:52:22;;;;;;;4.60;4.25;;;6.50;99.90;;;;;;6305439;22;20003;-75
2022/03/31 07:54:48;;;;;;;4.10;3.80;;;6.40;99.90;;;;;;6306781;22;20305;-74
2022/03/31 07:57:14;;;;;;;4.90;4.50;;;6.20;99.90;;;;;;6305109;22;20439;-75
2022/03/31 07:59:40;;;;;;;4.82;4.35;;;6.30;99.90;;;;;;6306409;22;19999;-75
2022/03/31 08:02:06;;;;;;;5.38;4.97;;;6.30;99.90;;;;;;6278904;22;20329;-75
2022/03/31 08:04:32;;;;;;;5.15;4.60;;;6.20;99.90;;;;;;6305767;22;20003;-75
2022/03/31 08:06:58;;;;;;;4.57;4.18;;;6.20;99.90;;;;;;6305233;22;20023;-75
2022/03/31 08:09:24;;;;;;;4.40;4.10;;;6.30;99.90;;;;;;6278062;22;19995;-75
2022/03/31 08:11:50;;;;;;;4.68;4.28;;;6.30;99.90;;;;;;6305141;22;20060;-75
2022/03/31 08:14:19;;;;;;;5.90;5.40;;;6.40;99.90;;;;;;6307245;22;20074;-75
2022/03/31 08:16:46;;;;;;;5.35;4.95;;;6.40;99.90;;;;;;6305323;22;20004;-75
2022/03/31 08:19:13;;;;;;;5.13;4.32;;;6.40;99.90;;;;;;6279163;22;19995;-74
2022/03/31 08:21:39;;;;;;;5.00;4.60;;;6.50;99.90;;;;;;6278571;22;20052;-75
2022/03/31 08:24:05;;;;;;;4.97;4.57;;;6.50;99.90;;;;;;6307101;22;20080;-75
2022/03/31 08:26:31;;;;;;;4.85;4.45;;;6.40;99.90;;;;;;6306262;22;20023;-75
2022/03/31 08:28:56;;;;;;;5.47;4.97;;;6.40;99.90;;;;;;6279484;22;20003;-75
2022/03/31 08:31:22;;;;;;;5.70;5.05;;;6.30;99.90;;;;;;6305656;22;19999;-75
2022/03/31 08:33:48;;;;;;;4.85;4.45;;;6.40;99.90;;;;;;6305887;22;20053;-75
2022/03/31 08:36:14;;;;;;;5.00;4.50;;;6.40;99.90;;;;;;6279451;22;20003;-75
2022/03/31 08:38:40;;;;;;;4.75;4.35;;;6.40;99.90;;;;;;6305477;22;20007;-75
2022/03/31 08:41:05;;;;;;;4.35;3.95;;;6.40;99.90;;;;;;6279152;22;20082;-75
2022/03/31 08:43:34;;;;;;;4.78;4.38;;;6.30;99.90;;;;;;6305355;22;20026;-75
2022/03/31 08:45:59;;;;;;;5.53;4.88;;;6.30;99.90;;;;;;6307258;22;20014;-75
2022/03/31 08:48:28;;;;;;;4.97;4.40;;;6.30;99.90;;;;;;6279234;22;20003;-75
2022/03/31 08:50:54;;;;;;;4.88;4.47;;;6.30;99.90;;;;;;6306380;22;20421;-75
2022/03/31 08:53:20;;;;;;;4.63;4.22;;;6.40;99.90;;;;;;6306290;22;20060;-75
2022/03/31 08:55:45;;;;;;;4.63;4.22;;;6.30;99.90;;;;;;6305044;22;20054;-75
2022/03/31 08:58:11;;;;;;;4.80;4.40;;;6.30;99.90;;;;;;6305626;22;20021;-75
2022/03/31 09:00:37;;;;;;;5.13;4.68;;;6.40;99.90;;;;;;6307279;22;19995;-73
2022/03/31 09:03:05;;;;;;;4.95;4.55;;;6.50;99.90;;;;;;6304090;22;20088;-74
2022/03/31 09:05:38;;;;;;;4.47;4.07;;;6.50;99.90;;;;;;6304767;22;20003;-73
2022/03/31 09:08:05;;;;;;;6.35;5.40;;;6.60;99.90;;;;;;6305295;22;20007;-74
2022/03/31 09:10:42;;;;;;;5.40;4.55;;;6.70;99.90;;;;;;6306172;22;20010;-73
2022/03/31 09:13:40;;;;;;;4.90;4.50;;;6.60;99.90;;;;;;6305048;22;20042;-73
2022/03/31 09:16:09;;;;;;;4.50;4.10;;;6.60;99.90;;;;;;6261392;22;20007;-74
2022/03/31 09:18:36;;;;;;;5.35;4.85;;;6.60;99.90;;;;;;6305108;22;20447;-74
2022/03/31 09:21:07;;;;;;;5.18;4.13;;;6.70;99.90;;;;;;6304528;22;20066;-74
2022/03/31 09:23:44;;;;;;;4.28;3.92;;;6.70;99.90;;;;;;6305835;22;20003;-74
2022/03/31 09:26:12;;;;;;;4.57;4.10;;;6.70;99.90;;;;;;6276671;22;20038;-74
2022/03/31 09:28:40;;;;;;;4.15;3.85;;;6.70;99.90;;;;;;6277526;22;20384;-74
2022/03/31 09:31:09;;;;;;;4.57;4.20;;;6.70;99.90;;;;;;6304812;22;20014;-74
2022/03/31 09:33:37;;;;;;;4.00;3.70;;;6.70;99.90;;;;;;6277807;22;20011;-74
2022/03/31 09:36:08;;;;;;;4.88;4.47;;;6.70;99.90;;;;;;6305945;22;20502;-73
2022/03/31 09:38:36;;;;;;;5.68;5.18;;;6.60;99.90;;;;;;6304070;22;19995;-74
2022/03/31 09:41:03;;;;;;;6.63;4.93;;;6.60;99.90;;;;;;6305405;22;19999;-74
2022/03/31 09:43:41;;;;;;;4.93;4.53;;;6.70;99.90;;;;;;6305011;22;20030;-73
2022/03/31 09:46:35;;;;;;;4.43;4.03;;;6.70;99.90;;;;;;6305542;22;20082;-74
2022/03/31 09:49:30;;;;;;;4.28;3.92;;;6.70;99.90;;;;;;6304541;22;20447;-74
2022/03/31 09:52:01;;;;;;;4.68;4.28;;;6.70;99.90;;;;;;6280175;22;20007;-74
2022/03/31 09:54:30;;;;;;;6.18;3.90;;;6.80;99.90;;;;;;6304789;22;20006;-74
2022/03/31 09:56:59;;;;;;;5.20;4.80;;;6.90;99.90;;;;;;6308307;22;20002;-74
2022/03/31 09:59:33;;;;;;;5.22;4.38;;;7.00;99.90;;;;;;6307643;22;19995;-74
2022/03/31 10:02:01;;;;;;;4.75;4.35;;;7.00;99.90;;;;;;6305929;22;20371;-74
2022/03/31 10:04:27;;;;;;;5.03;4.60;;;7.00;99.90;;;;;;6306578;22;19996;-74
2022/03/31 10:06:53;;;;;;;5.88;4.97;;;7.00;99.90;;;;;;6306424;22;19999;-74
2022/03/31 10:09:19;;;;;;;5.60;4.88;;;6.90;99.90;;;;;;6280370;22;19999;-74
2022/03/31 10:11:50;;;;;;;5.05;4.65;;;6.90;99.90;;;;;;6306990;22;20048;-74
2022/03/31 10:14:21;;;;;;;7.07;6.32;;;6.90;99.90;;;;;;6307425;22;20336;-74
2022/03/31 10:16:55;;;;;;;4.55;4.15;;;6.90;99.90;;;;;;6307168;22;20003;-74
2022/03/31 10:19:31;;;;;;;4.40;4.10;;;7.00;99.90;;;;;;6307883;22;20003;-74
2022/03/31 10:22:04;;;;;;;4.85;4.45;;;7.00;99.90;;;;;;6279653;22;20006;-75
2022/03/31 10:24:46;;;;;;;5.60;5.10;;;7.10;99.90;;;;;;6307438;22;20462;-74
2022/03/31 10:27:32;;;;;;;5.18;4.40;;;7.30;99.90;;;;;;6307180;22;19995;-74
2022/03/31 10:30:17;;;;;;;5.35;4.85;;;7.30;99.90;;;;;;6307991;22;20005;-74
2022/03/31 10:33:04;;;;;;;5.60;5.10;;;7.30;99.90;;;;;;6280740;22;20044;-74
2022/03/31 10:35:39;;;;;;;5.90;5.28;;;7.40;99.90;;;;;;6308323;22;20007;-74
2022/03/31 10:38:19;;;;;;;6.60;6.00;;;7.40;99.90;;;;;;6308344;22;20000;-74
2022/03/31 10:40:50;;;;;;;5.82;5.28;;;7.30;99.90;;;;;;6279876;22;20351;-75
2022/03/31 10:43:47;;;;;;;5.72;5.28;;;7.30;99.90;;;;;;6307424;22;20011;-74
2022/03/31 10:46:18;;;;;;;5.13;4.72;;;7.40;99.90;;;;;;6305138;22;20710;-75
2022/03/31 10:48:52;;;;;;;6.13;5.57;;;7.50;99.90;;;;;;6279282;22;19999;-74
2022/03/31 10:51:19;;;;;;;5.18;4.68;;;7.50;99.90;;;;;;6305850;22;20098;-74
2022/03/31 10:53:49;;;;;;;5.80;5.22;;;7.60;99.90;;;;;;6307021;22;20037;-76
2022/03/31 10:56:18;;;;;;;6.05;4.28;;;7.40;99.90;;;;;;6307143;22;19999;-74
2022/03/31 10:58:45;;;;;;;4.55;4.15;;;7.30;99.90;;;;;;6307127;22;19999;-74
2022/03/31 11:01:12;;;;;;;4.90;4.50;;;7.30;99.90;;;;;;6280622;22;20004;-74
2022/03/31 11:03:38;;;;;;;5.82;5.22;;;7.40;99.90;;;;;;6279086;22;20006;-74
2022/03/31 11:06:07;;;;;;;6.22;5.63;;;7.50;99.90;;;;;;6279592;22;20006;-74
2022/03/31 11:08:44;;;;;;;5.63;5.13;;;7.60;99.90;;;;;;6278052;22;20010;-74
2022/03/31 11:11:21;;;;;;;6.82;5.75;;;7.60;99.90;;;;;;6307390;22;20008;-74
2022/03/31 11:13:48;;;;;;;6.03;5.53;;;7.70;99.90;;;;;;6279021;22;20031;-74
2022/03/31 11:16:15;;;;;;;6.07;5.57;;;7.70;99.90;;;;;;6306934;22;20003;-74
2022/03/31 11:18:57;;;;;;;7.00;6.38;;;7.80;99.90;;;;;;6306358;22;19999;-74
2022/03/31 11:21:23;;;;;;;6.70;6.00;;;7.90;99.90;;;;;;6279463;22;20077;-76
2022/03/31 11:23:50;;;;;;;5.80;5.20;;;7.70;99.90;;;;;;6307466;22;19995;-76
2022/03/31 11:26:26;;;;;;;6.30;4.93;;;7.70;99.90;;;;;;6305731;22;20428;-74
2022/03/31 11:28:52;;;;;;;7.30;5.63;;;7.80;99.90;;;;;;6307708;22;20011;-74
2022/03/31 11:31:20;;;;;;;6.03;5.43;;;7.60;99.90;;;;;;6306130;22;20432;-76
2022/03/31 11:33:46;;;;;;;5.55;5.05;;;7.60;99.90;;;;;;6306968;22;20010;-75
2022/03/31 11:36:13;;;;;;;6.20;5.60;;;7.50;99.90;;;;;;6305086;22;20078;-76
2022/03/31 11:38:39;;;;;;;6.93;5.80;;;7.70;99.90;;;;;;6305806;22;20003;-75
2022/03/31 11:41:06;;;;;;;7.25;6.25;;;7.70;99.90;;;;;;6279902;22;19999;-75
2022/03/31 11:43:32;;;;;;;7.95;6.55;;;7.90;99.90;;;;;;6306069;22;20468;-75
2022/03/31 11:45:58;;;;;;;7.35;5.47;;;7.80;99.90;;;;;;6305630;22;20003;-75
2022/03/31 11:48:31;;;;;;;5.57;4.97;;;7.90;99.90;;;;;;6276681;22;20014;-75
2022/03/31 11:50:59;;;;;;;;;;;7.70;99.90;;;;;;6306921;22;20078;-72
2022/03/31 11:53:30;;;;;;;7.32;5.63;;;7.70;99.90;;;;;;6306346;22;19941;-75
2022/03/31 11:56:03;;;;;;;7.20;5.68;;;7.90;99.90;;;;;;6306784;22;20003;-75
2022/03/31 11:58:33;;;;;;;4.90;4.47;;;8.00;99.90;;;;;;6279760;22;20054;-75
2022/03/31 12:01:00;;;;;;;7.60;5.85;;;8.10;99.90;;;;;;6307079;22;20007;-75
2022/03/31 12:03:37;;;;;;;7.30;5.55;;;8.10;99.90;;;;;;6305285;22;19999;-75
2022/03/31 12:06:05;;;;;;;6.70;5.90;;;8.20;99.90;;;;;;6306671;22;20003;-75
2022/03/31 12:08:31;;;;;;;6.05;5.30;;;8.30;99.90;;;;;;6305791;22;20074;-75
2022/03/31 12:10:57;;;;;;;7.63;5.40;;;8.20;99.90;;;;;;6307063;22;20006;-75
2022/03/31 12:13:25;;;;;;;6.63;4.60;;;8.20;99.90;;;;;;6305691;22;20027;-75
2022/03/31 12:16:02;;;;;;;4.68;4.28;;;8.20;99.90;;;;;;6279156;22;20379;-75
2022/03/31 12:18:30;;;;;;;4.93;4.43;;;8.00;99.90;;;;;;6306413;22;19996;-74
2022/03/31 12:20:58;;;;;;;5.97;4.93;;;8.00;99.90;;;;;;6305811;22;19996;-75
2022/03/31 12:23:26;;;;;;;5.00;4.60;;;8.00;99.90;;;;;;6306475;22;20336;-75
2022/03/31 12:25:53;;;;;;;5.28;4.35;;;8.00;99.90;;;;;;6305039;22;20059;-75
2022/03/31 12:28:23;;;;;;;5.10;4.60;;;7.90;99.90;;;;;;6306250;22;19999;-75
2022/03/31 12:30:56;;;;;;;5.30;4.90;;;7.80;99.90;;;;;;6306898;22;20077;-74
2022/03/31 12:33:26;;;;;;;4.45;4.05;;;7.80;99.90;;;;;;6279399;22;20011;-75
2022/03/31 12:36:04;;;;;;;6.55;4.60;;;7.80;99.90;;;;;;6306740;22;20003;-75
2022/03/31 12:38:46;;;;;;;5.43;4.97;;;8.00;99.90;;;;;;6279725;22;20285;-75
2022/03/31 12:41:36;;;;;;;4.70;4.30;;;8.00;99.90;;;;;;6277849;22;20031;-75
2022/03/31 12:44:05;;;;;;;5.05;4.53;;;8.00;99.90;;;;;;6306617;22;20003;-75
2022/03/31 12:46:36;;;;;;;4.22;3.83;;;8.00;99.90;;;;;;6306217;22;20026;-75
2022/03/31 12:49:10;;;;;;;4.78;4.38;;;8.10;99.90;;;;;;6277648;22;20003;-75
2022/03/31 12:51:47;;;;;;;4.75;4.30;;;8.00;99.90;;;;;;6306844;22;20029;-75
2022/03/31 12:54:22;;;;;;;5.13;4.72;;;8.00;99.90;;;;;;6279156;22;20003;-75
2022/03/31 12:56:48;;;;;;;4.22;3.92;;;8.20;99.90;;;;;;6306606;22;20328;-75